Terminal Aerodrome Forecast
Issued by NWS Memphis, TN

Home | Current Version | Previous Version | Text Only | Print | Product List | Glossary On
Versions: 1 2 3 4 5 6 7 8 9 10 11 12 13 14 15 16 17 18 19 20 21 22 23 24 25 26 27 28 29 30 31
000
FTUS44 KMEG 241120
TAFMEM
TAF
KMEM 241120Z 2412/2512 28017G27KT P6SM FEW024 OVC030
     FM241500 26015G24KT P6SM BKN045
     FM241800 26015G25KT P6SM SCT250
     FM250100 21005KT P6SM SKC=

USA.gov is the U.S. government's official web portal to all federal, state and local government web resources and services.